Time;durP1;ratioP1;P1;durP2;ratioP2;P2;SDS_P1;SDS_P2;PMS_P1;PMS_P2;Temp;Humidity;BMP_temperature;BMP_pressure;BME280_temperature;BME280_humidity;BME280_pressure;Samples;Min_cycle;Max_cycle;Signal;HPM_P1;HPM_P2
2021/07/02 14:22:09;;;;;;;10.98;7.35;;;;;;;23.30;54.59;101907.53;5025836;27;1418968;-79
2021/07/02 14:24:41;;;;;;;9.15;6.55;;;;;;;23.01;55.06;101900.91;5054368;28;20037;-82
2021/07/02 14:27:35;;;;;;;11.32;8.13;;;;;;;22.90;57.64;101901.97;5065902;28;20043;-83
2021/07/02 14:30:37;;;;;;;11.60;6.93;;;;;;;23.26;57.54;101911.22;5058296;28;20049;-82
2021/07/02 14:33:29;;;;;;;11.07;7.45;;;;;;;23.38;53.76;101919.03;5060093;28;20124;-83
2021/07/02 14:36:03;;;;;;;10.70;7.03;;;;;;;23.09;56.22;101920.44;5055077;28;20036;-84
2021/07/02 14:38:53;;;;;;;8.80;6.35;;;;;;;22.76;56.74;101925.47;5065481;28;20028;-80
2021/07/02 14:42:16;;;;;;;8.65;7.20;;;;;;;22.89;59.35;101910.94;5056372;28;20036;-83
2021/07/02 14:48:42;;;;;;;8.73;6.57;;;;;;;22.90;55.72;101915.41;5059188;28;20051;-81
2021/07/02 14:51:59;;;;;;;10.18;7.70;;;;;;;22.89;56.89;101915.44;5063926;28;20052;-83
2021/07/02 14:55:37;;;;;;;;;;;;;;;;;;;;;
2021/07/02 14:59:15;;;;;;;;;;;;;;;;;;;;;
2021/07/02 15:02:09;;;;;;;6.90;5.78;;;;;;;23.12;55.17;101916.81;5055051;28;20048;-83
2021/07/02 15:04:35;;;;;;;7.85;6.80;;;;;;;22.77;54.20;101921.88;5061070;28;20466;-79
2021/07/02 15:07:03;;;;;;;9.50;6.70;;;;;;;22.61;54.67;101923.94;5067277;28;20048;-82
2021/07/02 15:10:30;;;;;;;;;;;;;;;;;;;;;
2021/07/02 15:14:08;;;;;;;;;;;;;;;;;;;;;
2021/07/02 15:20:21;;;;;;;7.65;6.78;;;;;;;22.07;58.24;101935.47;4965000;28;20035;-76
2021/07/02 15:24:13;;;;;;;10.73;8.20;;;;;;;22.34;56.45;101941.31;4945552;28;20036;-83
2021/07/02 15:34:02;;;;;;;;;;;;;;;;;;;;;
2021/07/02 16:08:47;;;;;;;11.00;7.03;;;;;;;22.05;61.49;101910.47;4822457;29;20060;-85
2021/07/02 17:21:30;;;;;;;10.13;6.38;;;;;;;19.85;65.17;101888.47;5072335;27;20941;-77
2021/07/02 17:23:56;;;;;;;8.93;5.78;;;;;;;19.90;65.21;101885.78;5053781;28;20039;-75
2021/07/02 17:26:24;;;;;;;9.75;6.85;;;;;;;19.76;65.17;101883.13;5053898;28;20029;-78
2021/07/02 17:28:54;;;;;;;9.65;6.78;;;;;;;19.71;66.29;101884.97;5049400;28;20398;-75
2021/07/02 17:31:20;;;;;;;13.13;7.60;;;;;;;19.66;65.08;101881.41;5045254;28;20494;-75
2021/07/02 17:34:05;;;;;;;9.80;6.93;;;;;;;19.64;65.26;101873.41;5050786;28;20035;-77
2021/07/02 17:36:30;;;;;;;12.10;6.85;;;;;;;19.68;65.54;101879.59;5046610;28;20119;-75
2021/07/02 17:38:58;;;;;;;11.35;7.25;;;;;;;19.57;65.38;101868.97;5046264;28;20553;-77
2021/07/02 17:41:24;;;;;;;11.52;7.30;;;;;;;19.59;65.24;101875.22;5047144;28;20047;-77
2021/07/02 17:43:50;;;;;;;10.18;6.55;;;;;;;19.58;66.22;101870.75;5052918;28;20025;-76
2021/07/02 17:46:15;;;;;;;11.55;7.30;;;;;;;19.58;65.42;101868.09;5051813;28;20096;-77
2021/07/02 17:48:41;;;;;;;8.27;6.32;;;;;;;19.53;65.77;101881.47;5051179;28;20021;-77
2021/07/02 17:51:06;;;;;;;9.45;6.60;;;;;;;19.41;64.76;101881.53;5048082;28;20025;-75
2021/07/02 17:53:32;;;;;;;10.15;6.47;;;;;;;19.33;65.22;101877.97;5042396;28;20082;-77
2021/07/02 17:55:57;;;;;;;8.15;5.60;;;;;;;19.39;65.58;101877.97;5041081;28;20120;-76
2021/07/02 17:58:23;;;;;;;8.55;6.47;;;;;;;19.37;65.28;101879.72;5044532;28;20037;-76
2021/07/02 18:00:49;;;;;;;7.47;6.28;;;;;;;19.25;65.69;101885.09;5046933;28;20084;-75
2021/07/02 18:03:14;;;;;;;8.73;5.65;;;;;;;19.19;65.30;101876.25;5050960;28;20033;-74
2021/07/02 18:05:41;;;;;;;7.05;6.15;;;;;;;19.17;65.53;101880.69;5043008;28;20040;-76
2021/07/02 18:08:08;;;;;;;8.23;6.38;;;;;;;19.09;65.69;101879.81;5040628;28;20029;-75
2021/07/02 18:10:54;;;;;;;10.65;6.20;;;;;;;19.10;66.32;101870.94;5041238;28;20074;-75
2021/07/02 18:13:19;;;;;;;9.05;5.93;;;;;;;19.02;66.09;101872.72;5040986;28;20033;-75
2021/07/02 18:15:45;;;;;;;10.48;6.97;;;;;;;19.03;66.12;101871.81;5039929;28;20101;-75
2021/07/02 18:27:43;;;;;;;9.93;6.85;;;;;;;18.66;67.52;101859.38;5051178;28;20788;-79
2021/07/02 18:30:10;;;;;;;8.75;6.10;;;;;;;18.60;67.89;101855.84;5049623;28;20052;-78
2021/07/02 18:32:39;;;;;;;12.65;6.32;;;;;;;18.54;67.90;101854.06;5055206;28;20018;-80
2021/07/02 18:35:08;;;;;;;11.73;6.38;;;;;;;18.44;67.97;101862.97;5054758;28;20033;-80
2021/07/02 18:37:34;;;;;;;13.60;6.35;;;;;;;18.39;68.56;101864.75;5055937;28;20025;-79
2021/07/02 18:40:00;;;;;;;9.10;6.38;;;;;;;18.34;69.05;101867.41;5055014;28;20024;-80
2021/07/02 18:42:25;;;;;;;8.32;6.50;;;;;;;18.23;69.32;101862.06;5048433;28;20482;-79
2021/07/02 18:44:51;;;;;;;10.82;7.00;;;;;;;18.17;69.64;101870.94;5052958;28;20063;-82
2021/07/02 18:47:16;;;;;;;10.18;6.20;;;;;;;18.09;69.53;101877.13;5050760;28;20032;-79
2021/07/02 18:49:42;;;;;;;9.10;6.80;;;;;;;18.00;70.52;101878.00;5051080;28;20025;-79
2021/07/02 18:52:08;;;;;;;11.27;7.25;;;;;;;17.98;69.85;101875.34;5051698;28;20090;-78
2021/07/02 18:54:33;;;;;;;13.13;6.85;;;;;;;17.95;69.99;101885.09;5054700;28;20395;-81
2021/07/02 18:57:00;;;;;;;12.05;6.45;;;;;;;17.91;69.43;101880.63;5051467;28;20449;-80
2021/07/02 18:59:25;;;;;;;11.02;6.82;;;;;;;17.85;69.82;101878.81;5055004;28;20029;-80
2021/07/02 19:01:59;;;;;;;8.85;5.80;;;;;;;17.92;70.32;101880.66;5056923;28;20028;-81
2021/07/02 19:04:25;;;;;;;10.60;7.07;;;;;;;18.00;69.86;101880.66;5056251;28;20470;-80
2021/07/02 19:06:51;;;;;;;8.75;6.07;;;;;;;18.10;69.36;101874.47;5053491;28;20364;-80
2021/07/02 19:09:17;;;;;;;9.13;6.55;;;;;;;18.19;69.07;101874.50;5054675;28;20104;-79
2021/07/02 19:11:43;;;;;;;8.23;6.03;;;;;;;18.18;68.74;101871.84;5055855;28;20032;-80
2021/07/02 19:14:09;;;;;;;6.80;5.32;;;;;;;18.05;68.13;101883.34;5057931;28;20079;-80
2021/07/02 19:16:39;;;;;;;8.90;5.80;;;;;;;17.93;69.05;101879.75;5051989;28;20033;-79
2021/07/02 19:19:09;;;;;;;7.25;5.88;;;;;;;17.83;69.37;101886.78;5049448;28;20040;-81
2021/07/02 19:21:54;;;;;;;8.32;5.68;;;;;;;17.72;69.36;101877.91;5052015;28;20021;-79
2021/07/02 19:24:21;;;;;;;10.23;5.85;;;;;;;17.67;69.93;101876.97;5056164;28;20060;-81
2021/07/02 19:26:49;;;;;;;10.00;6.10;;;;;;;17.53;70.47;101872.50;5052730;28;20091;-80
2021/07/02 19:29:16;;;;;;;12.23;6.00;;;;;;;17.42;71.15;101871.56;5051721;28;20024;-82
2021/07/02 19:31:42;;;;;;;11.60;6.03;;;;;;;17.32;70.81;101878.63;5047462;28;20491;-82
2021/07/02 19:34:07;;;;;;;10.23;6.68;;;;;;;17.29;71.50;101877.69;5056090;28;20069;-78
2021/07/02 19:36:34;;;;;;;11.25;7.13;;;;;;;17.19;72.25;101872.31;5053613;28;20036;-78
2021/07/02 19:39:00;;;;;;;10.15;6.97;;;;;;;17.11;72.19;101884.69;5042450;28;20030;-81
2021/07/02 19:41:29;;;;;;;11.55;6.60;;;;;;;17.03;72.26;101889.06;5039832;28;20029;-81
2021/07/02 19:43:55;;;;;;;10.15;6.68;;;;;;;16.97;72.82;101887.28;5040282;28;20025;-81
2021/07/02 19:46:21;;;;;;;12.93;7.60;;;;;;;16.93;73.05;101888.13;5042213;28;20021;-81
2021/07/02 19:48:46;;;;;;;9.13;6.47;;;;;;;16.82;73.18;101888.03;5045079;28;20077;-81
2021/07/02 19:51:12;;;;;;;10.32;6.28;;;;;;;16.74;73.02;101880.84;5047855;28;20036;-80
2021/07/02 19:53:43;;;;;;;10.27;6.65;;;;;;;16.64;73.38;101887.88;5041620;28;20039;-80
2021/07/02 19:56:09;;;;;;;11.82;7.13;;;;;;;16.56;73.85;101889.56;5036361;28;20037;-81
2021/07/02 19:58:34;;;;;;;11.05;7.00;;;;;;;16.50;74.47;101880.66;5046513;28;20043;-80
2021/07/02 20:01:00;;;;;;;11.32;7.35;;;;;;;16.41;74.47;101880.56;5044701;28;20065;-82
2021/07/02 20:03:29;;;;;;;9.20;6.75;;;;;;;16.33;74.74;101879.63;5040418;28;20029;-81
2021/07/02 20:05:57;;;;;;;12.55;7.07;;;;;;;16.28;74.67;101879.59;5045061;28;20037;-80
2021/07/02 20:08:24;;;;;;;11.57;7.22;;;;;;;16.27;75.10;101879.59;5044963;28;20025;-80
2021/07/02 20:10:51;;;;;;;11.38;7.50;;;;;;;16.28;75.41;101881.38;5049042;28;20025;-79
2021/07/02 20:13:17;;;;;;;11.95;7.72;;;;;;;16.24;76.14;101885.75;5038572;28;20036;-80
2021/07/02 20:15:42;;;;;;;11.93;7.35;;;;;;;16.22;76.36;101883.94;5044813;28;20033;-79
2021/07/02 20:18:15;;;;;;;15.95;9.90;;;;;;;16.21;76.47;101882.16;5048290;28;20017;-78
2021/07/02 20:20:41;;;;;;;17.90;10.18;;;;;;;16.15;76.52;101878.56;5045799;28;20042;-78
2021/07/02 20:23:23;;;;;;;20.23;10.48;;;;;;;16.12;76.90;101882.97;5046052;28;20482;-79
2021/07/02 20:25:49;;;;;;;17.83;10.77;;;;;;;16.08;76.40;101887.34;5048305;28;20139;-79
2021/07/02 20:28:20;;;;;;;14.63;10.85;;;;;;;16.03;77.11;101889.06;5044280;28;20399;-80
2021/07/02 20:30:45;;;;;;;18.33;10.90;;;;;;;15.97;77.20;101889.00;5043131;28;20052;-80
2021/07/02 20:33:12;;;;;;;19.27;11.32;;;;;;;15.92;77.24;101885.41;5046969;28;20125;-79
2021/07/02 20:35:39;;;;;;;22.15;12.60;;;;;;;15.90;77.27;101889.78;5048392;28;20094;-80
2021/07/02 20:38:09;;;;;;;21.33;11.85;;;;;;;15.88;77.50;101884.47;5040376;28;20022;-80
2021/07/02 20:40:34;;;;;;;19.88;14.00;;;;;;;15.82;77.73;101887.94;5048117;28;20087;-80
2021/07/02 20:43:00;;;;;;;17.73;12.25;;;;;;;15.79;77.81;101893.19;5045852;28;20021;-79
2021/07/02 20:45:25;;;;;;;20.15;12.05;;;;;;;15.76;78.14;101890.53;5048763;28;20119;-80
2021/07/02 20:47:51;;;;;;;27.20;13.45;;;;;;;15.74;78.33;101894.91;5046769;28;20032;-78
2021/07/02 20:50:22;;;;;;;24.65;12.90;;;;;;;15.68;78.65;101897.47;5048310;28;20020;-80
2021/07/02 20:52:47;;;;;;;26.25;13.43;;;;;;;15.63;79.06;101901.84;5036641;28;20434;-79
2021/07/02 20:55:13;;;;;;;24.52;13.38;;;;;;;15.60;79.05;101894.75;5040168;28;20025;-80
2021/07/02 20:57:40;;;;;;;23.77;14.60;;;;;;;15.54;79.34;101896.41;5038572;28;20025;-80
2021/07/02 21:00:06;;;;;;;26.55;14.40;;;;;;;15.45;79.66;101892.78;5035266;28;20029;-80
2021/07/02 21:02:32;;;;;;;29.80;13.95;;;;;;;15.41;79.45;101893.59;5046252;28;20025;-80
2021/07/02 21:04:58;;;;;;;23.33;14.05;;;;;;;15.32;79.99;101894.34;5038586;28;20071;-80
2021/07/02 21:07:27;;;;;;;23.95;14.38;;;;;;;15.25;80.23;101897.81;5040151;28;20065;-79
2021/07/02 21:09:56;;;;;;;30.38;15.45;;;;;;;15.17;80.80;101899.47;5043092;28;20021;-79
2021/07/02 21:12:33;;;;;;;25.95;14.27;;;;;;;15.15;80.53;101891.47;5037316;28;20064;-79
2021/07/02 21:15:51;;;;;;;26.35;14.65;;;;;;;15.14;80.78;101891.47;5036215;28;20691;-80
2021/07/02 21:21:35;;;;;;;27.73;15.25;;;;;;;15.11;80.53;101894.97;5011406;28;20041;-80
2021/07/02 21:24:17;;;;;;;27.90;15.90;;;;;;;15.09;80.69;101887.84;5030261;28;20083;-82
2021/07/02 21:26:45;;;;;;;32.38;16.85;;;;;;;15.04;80.95;101890.41;5031650;28;20056;-80
2021/07/02 21:29:14;;;;;;;32.08;17.60;;;;;;;15.01;81.48;101887.72;5026230;28;20371;-79
2021/07/02 21:32:33;;;;;;;33.13;17.88;;;;;;;14.96;81.51;101887.69;5029586;28;20040;-84
2021/07/02 21:35:39;;;;;;;34.13;17.85;;;;;;;14.91;81.53;101886.69;5030774;28;20247;-81
2021/07/02 21:39:15;;;;;;;;;;;;;;;;;;;;;
2021/07/02 21:41:50;;;;;;;36.75;18.75;;;;;;;14.85;81.91;101876.00;4935698;28;20033;-79
2021/07/02 21:44:18;;;;;;;31.17;18.65;;;;;;;14.81;81.97;101877.72;5025653;28;20072;-79
2021/07/02 21:47:18;;;;;;;37.33;19.50;;;;;;;14.79;82.27;101883.88;5025488;28;20046;-84
2021/07/02 21:49:53;;;;;;;38.03;19.98;;;;;;;14.79;82.11;101879.44;5025050;28;20068;-80
2021/07/02 21:52:22;;;;;;;36.92;19.77;;;;;;;14.78;82.28;101880.31;5035375;28;20235;-80
2021/07/02 21:54:59;;;;;;;40.05;22.08;;;;;;;14.75;82.57;101884.69;5035289;28;20035;-80
2021/07/02 21:57:36;;;;;;;39.88;21.80;;;;;;;14.73;82.86;101886.41;5034367;28;20053;-80
2021/07/02 22:00:30;;;;;;;39.85;21.83;;;;;;;14.68;83.11;101891.63;5035364;28;20037;-80
2021/07/02 22:03:55;;;;;;;41.22;21.90;;;;;;;14.65;83.08;101889.84;5038265;28;20138;-81
2021/07/02 22:16:53;;;;;;;41.13;20.77;;;;;;;14.48;83.24;101873.59;4996064;28;20116;-78
2021/07/02 22:19:18;;;;;;;39.67;21.33;;;;;;;14.47;83.27;101870.94;5007286;28;20113;-78
2021/07/02 22:22:28;;;;;;;36.85;20.55;;;;;;;14.46;83.58;101870.06;5033800;28;20067;-81
2021/07/02 22:24:59;;;;;;;45.30;24.40;;;;;;;14.41;84.07;101866.44;5027390;28;20502;-81
2021/07/02 22:27:30;;;;;;;39.15;20.77;;;;;;;14.37;83.85;101861.06;5036075;28;20053;-81
2021/07/02 22:30:04;;;;;;;34.70;18.80;;;;;;;14.36;83.92;101865.44;5033828;28;20095;-80
2021/07/02 22:32:30;;;;;;;45.60;23.15;;;;;;;14.35;84.47;101855.72;5035159;28;20103;-79
2021/07/02 22:35:02;;;;;;;40.47;21.98;;;;;;;14.34;84.41;101856.63;5040888;28;20045;-80
2021/07/02 22:37:50;;;;;;;44.03;22.58;;;;;;;14.33;84.76;101854.81;5031470;28;20057;-81
2021/07/02 22:41:06;;;;;;;45.88;24.05;;;;;;;14.29;84.79;101863.56;5036725;28;20033;-80
2021/07/02 22:44:37;;;;;;;;;;;;;;;;;;;;;
2021/07/02 22:48:01;;;;;;;51.25;25.00;;;;;;;14.25;84.80;101859.09;5043726;28;20507;-81
2021/07/02 22:51:25;;;;;;;45.83;24.33;;;;;;;14.18;85.06;101859.84;5047839;28;20056;-81
2021/07/02 22:54:40;;;;;;;48.55;24.13;;;;;;;14.09;85.53;101860.56;5046102;28;20041;-80
2021/07/02 22:57:55;;;;;;;49.47;24.08;;;;;;;14.04;85.76;101857.84;5067850;28;20065;-83
2021/07/02 23:00:59;;;;;;;;;;;;;;;;;;;;;
2021/07/02 23:04:21;;;;;;;47.10;22.10;;;;;;;13.98;85.64;101860.38;5048948;28;20124;-82
2021/07/02 23:07:54;;;;;;;;;;;;;;;;;;;;;
2021/07/02 23:11:24;;;;;;;49.10;22.83;;;;;;;13.97;85.95;101856.84;5045741;28;20036;-81
2021/07/02 23:14:47;;;;;;;48.88;24.52;;;;;;;13.91;85.95;101854.06;5036490;28;20064;-79
2021/07/02 23:18:06;;;;;;;47.83;24.80;;;;;;;13.85;86.37;101851.31;5050443;28;20036;-80
2021/07/02 23:21:15;;;;;;;46.33;23.15;;;;;;;13.79;86.18;101857.34;5048484;28;20088;-80
2021/07/02 23:24:12;;;;;;;51.30;25.20;;;;;;;13.76;85.70;101844.06;5041960;28;20449;-80
2021/07/02 23:27:38;;;;;;;51.15;25.35;;;;;;;13.72;86.35;101854.59;5051979;28;20047;-81
2021/07/02 23:30:57;;;;;;;;;;;;;;;;;;;;;
2021/07/02 23:34:25;;;;;;;52.67;23.15;;;;;;;13.64;86.44;101851.78;4997742;28;20084;-81
2021/07/02 23:37:41;;;;;;;46.10;23.05;;;;;;;13.59;86.41;101864.00;5006477;28;20033;-80
2021/07/02 23:40:47;;;;;;;55.05;25.75;;;;;;;13.51;87.10;101855.94;5042156;28;20052;-81
2021/07/02 23:44:11;;;;;;;46.92;23.80;;;;;;;13.44;86.97;101854.00;5050549;28;20098;-82
2021/07/02 23:47:18;;;;;;;51.58;24.33;;;;;;;13.36;86.81;101853.84;5011425;28;20133;-82
2021/07/02 23:50:32;;;;;;;;;;;;;;;;;;;;;
2021/07/02 23:53:39;;;;;;;45.63;23.90;;;;;;;13.31;86.92;101852.84;4962766;28;20030;-81
2021/07/02 23:56:38;;;;;;;48.90;22.88;;;;;;;13.30;86.81;101845.75;5025759;28;20050;-81
